sensor_id;sensor_type;location;lat;lon;timestamp;P1;durP1;ratioP1;P2;durP2;ratioP2
74227;SDS011;62587;52.352;5.006;2022-09-30T00:00:12;3.03;;;2.17;;
74227;SDS011;62587;52.352;5.006;2022-09-30T00:02:37;2.80;;;2.20;;
74227;SDS011;62587;52.352;5.006;2022-09-30T00:05:03;2.35;;;1.83;;
74227;SDS011;62587;52.352;5.006;2022-09-30T00:07:28;2.20;;;1.88;;
74227;SDS011;62587;52.352;5.006;2022-09-30T00:09:54;2.42;;;2.00;;
74227;SDS011;62587;52.352;5.006;2022-09-30T00:12:19;2.50;;;1.70;;
74227;SDS011;62587;52.352;5.006;2022-09-30T00:14:45;2.20;;;1.77;;
74227;SDS011;62587;52.352;5.006;2022-09-30T00:17:10;2.55;;;1.90;;
74227;SDS011;62587;52.352;5.006;2022-09-30T00:19:35;2.63;;;2.10;;
74227;SDS011;62587;52.352;5.006;2022-09-30T00:22:01;2.60;;;1.92;;
74227;SDS011;62587;52.352;5.006;2022-09-30T00:24:26;2.50;;;1.87;;
74227;SDS011;62587;52.352;5.006;2022-09-30T00:26:51;2.60;;;2.03;;
74227;SDS011;62587;52.352;5.006;2022-09-30T00:29:17;3.08;;;2.10;;
74227;SDS011;62587;52.352;5.006;2022-09-30T00:31:42;2.25;;;1.95;;
74227;SDS011;62587;52.352;5.006;2022-09-30T00:34:08;3.13;;;1.80;;
74227;SDS011;62587;52.352;5.006;2022-09-30T00:39:08;2.67;;;2.05;;
74227;SDS011;62587;52.352;5.006;2022-09-30T00:41:36;2.72;;;2.20;;
74227;SDS011;62587;52.352;5.006;2022-09-30T00:44:01;3.38;;;2.22;;
74227;SDS011;62587;52.352;5.006;2022-09-30T00:47:08;2.88;;;2.03;;
74227;SDS011;62587;52.352;5.006;2022-09-30T00:50:01;2.92;;;2.35;;
74227;SDS011;62587;52.352;5.006;2022-09-30T00:52:30;3.30;;;2.10;;
74227;SDS011;62587;52.352;5.006;2022-09-30T00:54:58;3.30;;;2.03;;
74227;SDS011;62587;52.352;5.006;2022-09-30T00:57:27;2.45;;;2.10;;
74227;SDS011;62587;52.352;5.006;2022-09-30T00:59:53;2.63;;;2.10;;
74227;SDS011;62587;52.352;5.006;2022-09-30T01:02:18;3.30;;;2.10;;
74227;SDS011;62587;52.352;5.006;2022-09-30T01:04:44;3.13;;;2.33;;
74227;SDS011;62587;52.352;5.006;2022-09-30T01:07:10;2.70;;;2.13;;
74227;SDS011;62587;52.352;5.006;2022-09-30T01:09:38;3.53;;;2.28;;
74227;SDS011;62587;52.352;5.006;2022-09-30T01:12:11;3.03;;;2.08;;
74227;SDS011;62587;52.352;5.006;2022-09-30T01:14:40;3.08;;;2.45;;
74227;SDS011;62587;52.352;5.006;2022-09-30T01:17:10;2.50;;;2.00;;
74227;SDS011;62587;52.352;5.006;2022-09-30T01:29:02;2.58;;;2.30;;
74227;SDS011;62587;52.352;5.006;2022-09-30T01:32:12;2.35;;;2.00;;
74227;SDS011;62587;52.352;5.006;2022-09-30T01:34:53;2.80;;;2.10;;
74227;SDS011;62587;52.352;5.006;2022-09-30T01:43:37;2.65;;;2.05;;
74227;SDS011;62587;52.352;5.006;2022-09-30T01:51:40;2.33;;;1.92;;
74227;SDS011;62587;52.352;5.006;2022-09-30T01:54:23;2.72;;;1.92;;
74227;SDS011;62587;52.352;5.006;2022-09-30T01:56:57;3.03;;;2.30;;
74227;SDS011;62587;52.352;5.006;2022-09-30T01:59:31;2.78;;;2.15;;
74227;SDS011;62587;52.352;5.006;2022-09-30T02:02:03;2.78;;;2.03;;
74227;SDS011;62587;52.352;5.006;2022-09-30T02:04:57;2.63;;;2.30;;
74227;SDS011;62587;52.352;5.006;2022-09-30T02:07:37;3.33;;;2.00;;
74227;SDS011;62587;52.352;5.006;2022-09-30T02:10:15;2.75;;;2.08;;
74227;SDS011;62587;52.352;5.006;2022-09-30T02:12:49;3.40;;;2.20;;
74227;SDS011;62587;52.352;5.006;2022-09-30T02:15:38;3.00;;;2.42;;
74227;SDS011;62587;52.352;5.006;2022-09-30T02:18:14;3.42;;;2.10;;
74227;SDS011;62587;52.352;5.006;2022-09-30T02:20:45;2.97;;;2.10;;
74227;SDS011;62587;52.352;5.006;2022-09-30T02:23:14;3.30;;;2.50;;
74227;SDS011;62587;52.352;5.006;2022-09-30T02:25:47;2.53;;;2.13;;
74227;SDS011;62587;52.352;5.006;2022-09-30T02:28:21;2.92;;;1.85;;
74227;SDS011;62587;52.352;5.006;2022-09-30T02:30:51;3.55;;;2.30;;
74227;SDS011;62587;52.352;5.006;2022-09-30T02:33:40;3.55;;;2.70;;
74227;SDS011;62587;52.352;5.006;2022-09-30T02:36:16;3.13;;;2.42;;
74227;SDS011;62587;52.352;5.006;2022-09-30T02:38:49;3.40;;;2.78;;
74227;SDS011;62587;52.352;5.006;2022-09-30T02:41:23;2.88;;;2.60;;
74227;SDS011;62587;52.352;5.006;2022-09-30T02:43:51;3.17;;;2.80;;
74227;SDS011;62587;52.352;5.006;2022-09-30T02:49:01;3.25;;;2.78;;
74227;SDS011;62587;52.352;5.006;2022-09-30T02:57:21;3.88;;;3.22;;
74227;SDS011;62587;52.352;5.006;2022-09-30T02:59:58;5.40;;;3.10;;
74227;SDS011;62587;52.352;5.006;2022-09-30T03:02:24;3.75;;;3.20;;
74227;SDS011;62587;52.352;5.006;2022-09-30T03:04:49;3.55;;;3.15;;
74227;SDS011;62587;52.352;5.006;2022-09-30T03:07:15;3.85;;;3.05;;
74227;SDS011;62587;52.352;5.006;2022-09-30T03:09:41;3.58;;;3.03;;
74227;SDS011;62587;52.352;5.006;2022-09-30T03:12:22;3.97;;;3.05;;
74227;SDS011;62587;52.352;5.006;2022-09-30T03:15:28;3.78;;;3.00;;
74227;SDS011;62587;52.352;5.006;2022-09-30T03:21:13;4.43;;;2.97;;
74227;SDS011;62587;52.352;5.006;2022-09-30T03:34:52;3.80;;;3.15;;
74227;SDS011;62587;52.352;5.006;2022-09-30T03:37:33;3.53;;;3.03;;
74227;SDS011;62587;52.352;5.006;2022-09-30T03:43:02;4.50;;;3.17;;
74227;SDS011;62587;52.352;5.006;2022-09-30T03:45:45;3.42;;;2.92;;
74227;SDS011;62587;52.352;5.006;2022-09-30T03:48:17;3.90;;;2.97;;
74227;SDS011;62587;52.352;5.006;2022-09-30T03:50:45;3.25;;;2.80;;
74227;SDS011;62587;52.352;5.006;2022-09-30T03:53:10;3.50;;;2.90;;
74227;SDS011;62587;52.352;5.006;2022-09-30T03:55:47;5.60;;;3.20;;
74227;SDS011;62587;52.352;5.006;2022-09-30T03:58:15;3.72;;;3.05;;
74227;SDS011;62587;52.352;5.006;2022-09-30T04:00:52;3.40;;;2.55;;
74227;SDS011;62587;52.352;5.006;2022-09-30T04:03:19;2.78;;;2.40;;
74227;SDS011;62587;52.352;5.006;2022-09-30T04:05:46;3.20;;;2.72;;
74227;SDS011;62587;52.352;5.006;2022-09-30T04:08:11;2.75;;;2.53;;
74227;SDS011;62587;52.352;5.006;2022-09-30T04:10:40;3.72;;;2.67;;
74227;SDS011;62587;52.352;5.006;2022-09-30T04:13:08;3.65;;;2.55;;
74227;SDS011;62587;52.352;5.006;2022-09-30T04:15:34;3.30;;;2.72;;
74227;SDS011;62587;52.352;5.006;2022-09-30T04:18:00;2.70;;;2.47;;
74227;SDS011;62587;52.352;5.006;2022-09-30T04:20:26;2.58;;;2.15;;
74227;SDS011;62587;52.352;5.006;2022-09-30T04:22:55;2.90;;;2.53;;
74227;SDS011;62587;52.352;5.006;2022-09-30T04:25:22;2.88;;;2.40;;
74227;SDS011;62587;52.352;5.006;2022-09-30T04:27:47;3.00;;;2.37;;
74227;SDS011;62587;52.352;5.006;2022-09-30T04:30:12;2.63;;;2.33;;
74227;SDS011;62587;52.352;5.006;2022-09-30T04:32:40;2.87;;;2.57;;
74227;SDS011;62587;52.352;5.006;2022-09-30T04:35:09;2.38;;;2.10;;
74227;SDS011;62587;52.352;5.006;2022-09-30T04:37:41;2.95;;;2.50;;
74227;SDS011;62587;52.352;5.006;2022-09-30T04:40:11;2.67;;;2.40;;
74227;SDS011;62587;52.352;5.006;2022-09-30T04:42:38;2.63;;;2.40;;
74227;SDS011;62587;52.352;5.006;2022-09-30T04:45:05;3.08;;;2.45;;
74227;SDS011;62587;52.352;5.006;2022-09-30T04:47:31;2.90;;;2.45;;
74227;SDS011;62587;52.352;5.006;2022-09-30T04:49:56;2.20;;;2.00;;
74227;SDS011;62587;52.352;5.006;2022-09-30T04:52:22;2.60;;;2.30;;
74227;SDS011;62587;52.352;5.006;2022-09-30T04:54:47;2.72;;;2.28;;
74227;SDS011;62587;52.352;5.006;2022-09-30T04:57:13;3.58;;;2.63;;
74227;SDS011;62587;52.352;5.006;2022-09-30T04:59:39;2.63;;;2.42;;
74227;SDS011;62587;52.352;5.006;2022-09-30T05:02:04;2.60;;;2.28;;
74227;SDS011;62587;52.352;5.006;2022-09-30T05:04:30;3.10;;;2.50;;
74227;SDS011;62587;52.352;5.006;2022-09-30T05:06:57;2.35;;;2.00;;
74227;SDS011;62587;52.352;5.006;2022-09-30T05:09:24;2.45;;;2.00;;
74227;SDS011;62587;52.352;5.006;2022-09-30T05:11:49;2.60;;;2.15;;
74227;SDS011;62587;52.352;5.006;2022-09-30T05:14:16;2.42;;;2.00;;
74227;SDS011;62587;52.352;5.006;2022-09-30T05:16:41;2.45;;;2.22;;
74227;SDS011;62587;52.352;5.006;2022-09-30T05:19:07;3.05;;;2.15;;
74227;SDS011;62587;52.352;5.006;2022-09-30T05:21:32;2.45;;;2.15;;
74227;SDS011;62587;52.352;5.006;2022-09-30T05:23:58;3.00;;;2.00;;
74227;SDS011;62587;52.352;5.006;2022-09-30T05:26:23;2.58;;;2.08;;
74227;SDS011;62587;52.352;5.006;2022-09-30T05:28:48;2.03;;;1.75;;
74227;SDS011;62587;52.352;5.006;2022-09-30T05:31:14;3.20;;;1.90;;
74227;SDS011;62587;52.352;5.006;2022-09-30T05:33:39;2.03;;;1.80;;
74227;SDS011;62587;52.352;5.006;2022-09-30T05:36:06;2.30;;;2.10;;
74227;SDS011;62587;52.352;5.006;2022-09-30T05:38:32;2.20;;;1.80;;
74227;SDS011;62587;52.352;5.006;2022-09-30T05:41:04;2.47;;;2.08;;
74227;SDS011;62587;52.352;5.006;2022-09-30T05:43:35;2.60;;;2.33;;
74227;SDS011;62587;52.352;5.006;2022-09-30T05:46:02;2.28;;;2.08;;
74227;SDS011;62587;52.352;5.006;2022-09-30T05:48:27;2.33;;;1.83;;
74227;SDS011;62587;52.352;5.006;2022-09-30T05:50:53;2.80;;;2.05;;
74227;SDS011;62587;52.352;5.006;2022-09-30T05:53:20;2.10;;;1.90;;
74227;SDS011;62587;52.352;5.006;2022-09-30T05:55:45;2.13;;;1.88;;
74227;SDS011;62587;52.352;5.006;2022-09-30T05:58:12;2.60;;;1.60;;
74227;SDS011;62587;52.352;5.006;2022-09-30T06:00:42;2.08;;;1.77;;
74227;SDS011;62587;52.352;5.006;2022-09-30T06:03:08;2.00;;;1.73;;
74227;SDS011;62587;52.352;5.006;2022-09-30T06:05:34;2.30;;;1.60;;
74227;SDS011;62587;52.352;5.006;2022-09-30T06:08:00;2.58;;;1.95;;
74227;SDS011;62587;52.352;5.006;2022-09-30T06:10:27;2.03;;;1.73;;
74227;SDS011;62587;52.352;5.006;2022-09-30T06:12:53;1.98;;;1.60;;
74227;SDS011;62587;52.352;5.006;2022-09-30T06:15:18;2.30;;;1.92;;
74227;SDS011;62587;52.352;5.006;2022-09-30T06:17:44;1.88;;;1.63;;
74227;SDS011;62587;52.352;5.006;2022-09-30T06:20:11;2.58;;;1.90;;
74227;SDS011;62587;52.352;5.006;2022-09-30T06:22:36;2.05;;;1.65;;
74227;SDS011;62587;52.352;5.006;2022-09-30T06:25:04;2.28;;;1.80;;
74227;SDS011;62587;52.352;5.006;2022-09-30T06:27:33;2.15;;;1.70;;
74227;SDS011;62587;52.352;5.006;2022-09-30T06:29:59;2.20;;;1.73;;
74227;SDS011;62587;52.352;5.006;2022-09-30T06:32:24;1.80;;;1.70;;
74227;SDS011;62587;52.352;5.006;2022-09-30T06:34:50;2.08;;;1.85;;
74227;SDS011;62587;52.352;5.006;2022-09-30T06:37:19;1.95;;;1.63;;
74227;SDS011;62587;52.352;5.006;2022-09-30T06:39:45;1.90;;;1.70;;
74227;SDS011;62587;52.352;5.006;2022-09-30T06:42:10;2.07;;;1.63;;
74227;SDS011;62587;52.352;5.006;2022-09-30T06:44:36;2.40;;;1.60;;
74227;SDS011;62587;52.352;5.006;2022-09-30T06:47:01;2.23;;;1.70;;
74227;SDS011;62587;52.352;5.006;2022-09-30T06:49:26;1.77;;;1.60;;
74227;SDS011;62587;52.352;5.006;2022-09-30T06:51:52;2.25;;;1.80;;
74227;SDS011;62587;52.352;5.006;2022-09-30T06:54:17;2.05;;;1.55;;
74227;SDS011;62587;52.352;5.006;2022-09-30T06:56:46;2.03;;;1.65;;
74227;SDS011;62587;52.352;5.006;2022-09-30T06:59:12;1.90;;;1.65;;
74227;SDS011;62587;52.352;5.006;2022-09-30T07:01:41;2.00;;;1.63;;
74227;SDS011;62587;52.352;5.006;2022-09-30T07:04:11;1.92;;;1.70;;
74227;SDS011;62587;52.352;5.006;2022-09-30T07:09:03;1.77;;;1.67;;
74227;SDS011;62587;52.352;5.006;2022-09-30T07:11:29;2.08;;;1.75;;
74227;SDS011;62587;52.352;5.006;2022-09-30T07:13:54;2.38;;;1.55;;
74227;SDS011;62587;52.352;5.006;2022-09-30T07:16:20;2.03;;;1.80;;
74227;SDS011;62587;52.352;5.006;2022-09-30T07:18:45;2.03;;;1.80;;
74227;SDS011;62587;52.352;5.006;2022-09-30T07:21:14;2.58;;;1.88;;
74227;SDS011;62587;52.352;5.006;2022-09-30T07:23:40;2.00;;;1.80;;
74227;SDS011;62587;52.352;5.006;2022-09-30T07:26:15;2.00;;;1.65;;
74227;SDS011;62587;52.352;5.006;2022-09-30T07:28:41;1.85;;;1.60;;
74227;SDS011;62587;52.352;5.006;2022-09-30T07:31:09;2.03;;;1.50;;
74227;SDS011;62587;52.352;5.006;2022-09-30T07:33:40;1.75;;;1.65;;
74227;SDS011;62587;52.352;5.006;2022-09-30T07:36:06;1.92;;;1.60;;
74227;SDS011;62587;52.352;5.006;2022-09-30T07:38:32;2.45;;;1.85;;
74227;SDS011;62587;52.352;5.006;2022-09-30T07:41:01;1.90;;;1.55;;
74227;SDS011;62587;52.352;5.006;2022-09-30T07:43:27;1.92;;;1.67;;
74227;SDS011;62587;52.352;5.006;2022-09-30T07:46:07;1.60;;;1.30;;
74227;SDS011;62587;52.352;5.006;2022-09-30T07:48:35;2.17;;;1.30;;
74227;SDS011;62587;52.352;5.006;2022-09-30T07:51:02;1.90;;;1.58;;
74227;SDS011;62587;52.352;5.006;2022-09-30T07:53:27;2.03;;;1.50;;
74227;SDS011;62587;52.352;5.006;2022-09-30T07:55:53;2.37;;;1.70;;
74227;SDS011;62587;52.352;5.006;2022-09-30T07:58:18;1.47;;;1.30;;
74227;SDS011;62587;52.352;5.006;2022-09-30T08:00:45;1.97;;;1.43;;
74227;SDS011;62587;52.352;5.006;2022-09-30T08:03:14;1.75;;;1.30;;
74227;SDS011;62587;52.352;5.006;2022-09-30T08:05:40;1.70;;;1.40;;
74227;SDS011;62587;52.352;5.006;2022-09-30T08:08:09;2.08;;;1.42;;
74227;SDS011;62587;52.352;5.006;2022-09-30T08:10:36;1.73;;;1.60;;
74227;SDS011;62587;52.352;5.006;2022-09-30T08:13:01;1.70;;;1.35;;
74227;SDS011;62587;52.352;5.006;2022-09-30T08:15:27;1.88;;;1.50;;
74227;SDS011;62587;52.352;5.006;2022-09-30T08:17:52;2.10;;;1.25;;
74227;SDS011;62587;52.352;5.006;2022-09-30T08:20:18;1.70;;;1.20;;
74227;SDS011;62587;52.352;5.006;2022-09-30T08:22:43;1.58;;;1.40;;
74227;SDS011;62587;52.352;5.006;2022-09-30T08:25:08;2.67;;;1.33;;
74227;SDS011;62587;52.352;5.006;2022-09-30T08:27:33;1.97;;;1.30;;
74227;SDS011;62587;52.352;5.006;2022-09-30T08:29:59;1.57;;;1.10;;
74227;SDS011;62587;52.352;5.006;2022-09-30T08:32:24;2.10;;;1.30;;
74227;SDS011;62587;52.352;5.006;2022-09-30T08:34:49;1.40;;;1.15;;
74227;SDS011;62587;52.352;5.006;2022-09-30T08:37:15;1.75;;;1.30;;
74227;SDS011;62587;52.352;5.006;2022-09-30T08:39:40;1.70;;;1.23;;
74227;SDS011;62587;52.352;5.006;2022-09-30T08:42:18;1.70;;;1.38;;
74227;SDS011;62587;52.352;5.006;2022-09-30T08:44:59;1.27;;;0.98;;
74227;SDS011;62587;52.352;5.006;2022-09-30T08:50:37;1.40;;;1.20;;
74227;SDS011;62587;52.352;5.006;2022-09-30T08:53:34;1.75;;;1.10;;
74227;SDS011;62587;52.352;5.006;2022-09-30T08:56:02;2.17;;;1.33;;
74227;SDS011;62587;52.352;5.006;2022-09-30T08:58:33;1.60;;;1.10;;
74227;SDS011;62587;52.352;5.006;2022-09-30T09:01:22;2.38;;;1.30;;
74227;SDS011;62587;52.352;5.006;2022-09-30T09:03:49;2.38;;;1.45;;
74227;SDS011;62587;52.352;5.006;2022-09-30T09:06:17;1.92;;;1.30;;
74227;SDS011;62587;52.352;5.006;2022-09-30T09:14:02;2.47;;;1.48;;
74227;SDS011;62587;52.352;5.006;2022-09-30T09:16:38;1.80;;;1.30;;
74227;SDS011;62587;52.352;5.006;2022-09-30T09:19:09;2.35;;;1.45;;
74227;SDS011;62587;52.352;5.006;2022-09-30T09:21:39;1.98;;;1.40;;
74227;SDS011;62587;52.352;5.006;2022-09-30T09:24:24;2.00;;;1.30;;
74227;SDS011;62587;52.352;5.006;2022-09-30T09:29:57;1.80;;;1.15;;
74227;SDS011;62587;52.352;5.006;2022-09-30T09:32:25;2.00;;;1.52;;
74227;SDS011;62587;52.352;5.006;2022-09-30T09:34:52;1.60;;;1.23;;
74227;SDS011;62587;52.352;5.006;2022-09-30T09:37:29;1.50;;;1.13;;
74227;SDS011;62587;52.352;5.006;2022-09-30T09:40:33;1.92;;;1.48;;
74227;SDS011;62587;52.352;5.006;2022-09-30T09:46:12;1.88;;;1.40;;
74227;SDS011;62587;52.352;5.006;2022-09-30T09:48:39;2.30;;;1.42;;
74227;SDS011;62587;52.352;5.006;2022-09-30T09:51:17;2.40;;;1.40;;
74227;SDS011;62587;52.352;5.006;2022-09-30T09:53:50;1.60;;;1.13;;
74227;SDS011;62587;52.352;5.006;2022-09-30T09:56:20;1.70;;;1.40;;
74227;SDS011;62587;52.352;5.006;2022-09-30T09:59:06;1.80;;;1.50;;
74227;SDS011;62587;52.352;5.006;2022-09-30T10:01:38;1.77;;;1.38;;
74227;SDS011;62587;52.352;5.006;2022-09-30T10:04:10;1.70;;;1.25;;
74227;SDS011;62587;52.352;5.006;2022-09-30T10:06:54;1.85;;;1.45;;
74227;SDS011;62587;52.352;5.006;2022-09-30T10:14:30;1.70;;;1.27;;
74227;SDS011;62587;52.352;5.006;2022-09-30T10:17:00;1.88;;;1.38;;
74227;SDS011;62587;52.352;5.006;2022-09-30T10:19:27;2.13;;;1.33;;
74227;SDS011;62587;52.352;5.006;2022-09-30T10:24:32;2.00;;;1.40;;
74227;SDS011;62587;52.352;5.006;2022-09-30T10:26:59;1.63;;;1.35;;
74227;SDS011;62587;52.352;5.006;2022-09-30T10:29:32;1.98;;;1.23;;
74227;SDS011;62587;52.352;5.006;2022-09-30T10:31:59;2.53;;;1.35;;
74227;SDS011;62587;52.352;5.006;2022-09-30T10:36:55;1.90;;;1.50;;
74227;SDS011;62587;52.352;5.006;2022-09-30T10:39:29;1.90;;;1.20;;
74227;SDS011;62587;52.352;5.006;2022-09-30T10:42:04;1.63;;;1.30;;
74227;SDS011;62587;52.352;5.006;2022-09-30T10:44:42;1.60;;;1.40;;
74227;SDS011;62587;52.352;5.006;2022-09-30T10:47:12;1.83;;;1.17;;
74227;SDS011;62587;52.352;5.006;2022-09-30T10:49:54;1.85;;;1.35;;
74227;SDS011;62587;52.352;5.006;2022-09-30T10:52:23;1.30;;;1.00;;
74227;SDS011;62587;52.352;5.006;2022-09-30T10:54:52;1.63;;;1.20;;
74227;SDS011;62587;52.352;5.006;2022-09-30T10:57:23;1.35;;;1.10;;
74227;SDS011;62587;52.352;5.006;2022-09-30T11:00:33;1.60;;;1.08;;
74227;SDS011;62587;52.352;5.006;2022-09-30T11:02:48;2.17;;;1.15;;
74227;SDS011;62587;52.352;5.006;2022-09-30T11:05:23;1.55;;;1.05;;
74227;SDS011;62587;52.352;5.006;2022-09-30T11:13:28;1.40;;;1.00;;
74227;SDS011;62587;52.352;5.006;2022-09-30T11:21:14;1.83;;;1.20;;
74227;SDS011;62587;52.352;5.006;2022-09-30T11:23:59;1.95;;;1.27;;
74227;SDS011;62587;52.352;5.006;2022-09-30T11:29:05;1.23;;;1.00;;
74227;SDS011;62587;52.352;5.006;2022-09-30T11:31:47;1.42;;;1.00;;
74227;SDS011;62587;52.352;5.006;2022-09-30T11:34:41;1.27;;;1.00;;
74227;SDS011;62587;52.352;5.006;2022-09-30T11:40:28;1.48;;;1.20;;
74227;SDS011;62587;52.352;5.006;2022-09-30T11:48:07;1.15;;;1.05;;
74227;SDS011;62587;52.352;5.006;2022-09-30T11:58:41;1.30;;;0.93;;
74227;SDS011;62587;52.352;5.006;2022-09-30T12:01:52;1.98;;;1.00;;
74227;SDS011;62587;52.352;5.006;2022-09-30T12:06:35;1.63;;;1.00;;
74227;SDS011;62587;52.352;5.006;2022-09-30T12:14:25;1.80;;;0.90;;
74227;SDS011;62587;52.352;5.006;2022-09-30T12:16:57;1.50;;;0.93;;
74227;SDS011;62587;52.352;5.006;2022-09-30T12:19:28;1.75;;;0.95;;
74227;SDS011;62587;52.352;5.006;2022-09-30T12:22:04;1.17;;;0.95;;
74227;SDS011;62587;52.352;5.006;2022-09-30T12:24:38;1.63;;;1.00;;
74227;SDS011;62587;52.352;5.006;2022-09-30T12:27:19;1.48;;;1.00;;
74227;SDS011;62587;52.352;5.006;2022-09-30T12:30:02;1.20;;;0.80;;
74227;SDS011;62587;52.352;5.006;2022-09-30T12:40:59;1.55;;;1.10;;
74227;SDS011;62587;52.352;5.006;2022-09-30T12:48:49;1.33;;;1.00;;
74227;SDS011;62587;52.352;5.006;2022-09-30T12:51:25;1.63;;;1.00;;
74227;SDS011;62587;52.352;5.006;2022-09-30T12:53:58;1.20;;;0.95;;
74227;SDS011;62587;52.352;5.006;2022-09-30T12:56:28;1.63;;;1.00;;
74227;SDS011;62587;52.352;5.006;2022-09-30T12:58:55;1.23;;;0.98;;
74227;SDS011;62587;52.352;5.006;2022-09-30T13:01:26;2.00;;;0.95;;
74227;SDS011;62587;52.352;5.006;2022-09-30T13:06:26;1.13;;;0.90;;
74227;SDS011;62587;52.352;5.006;2022-09-30T13:11:41;1.77;;;1.10;;
74227;SDS011;62587;52.352;5.006;2022-09-30T13:16:58;1.52;;;1.00;;
74227;SDS011;62587;52.352;5.006;2022-09-30T13:19:35;1.27;;;1.00;;
74227;SDS011;62587;52.352;5.006;2022-09-30T13:35:34;1.45;;;1.00;;
74227;SDS011;62587;52.352;5.006;2022-09-30T13:46:13;1.38;;;1.02;;
74227;SDS011;62587;52.352;5.006;2022-09-30T13:48:50;1.63;;;0.90;;
74227;SDS011;62587;52.352;5.006;2022-09-30T13:51:21;1.70;;;1.00;;
74227;SDS011;62587;52.352;5.006;2022-09-30T13:53:53;1.58;;;0.90;;
74227;SDS011;62587;52.352;5.006;2022-09-30T13:56:32;1.27;;;0.93;;
74227;SDS011;62587;52.352;5.006;2022-09-30T14:01:56;1.42;;;1.00;;
74227;SDS011;62587;52.352;5.006;2022-09-30T14:04:42;1.85;;;1.02;;
74227;SDS011;62587;52.352;5.006;2022-09-30T14:11:01;1.73;;;0.90;;
74227;SDS011;62587;52.352;5.006;2022-09-30T14:16:45;1.15;;;0.90;;
74227;SDS011;62587;52.352;5.006;2022-09-30T14:19:45;1.70;;;1.00;;
74227;SDS011;62587;52.352;5.006;2022-09-30T14:22:35;1.55;;;0.88;;
74227;SDS011;62587;52.352;5.006;2022-09-30T14:25:01;1.40;;;0.98;;
74227;SDS011;62587;52.352;5.006;2022-09-30T14:30:31;1.50;;;1.02;;
74227;SDS011;62587;52.352;5.006;2022-09-30T14:33:08;1.75;;;0.90;;
74227;SDS011;62587;52.352;5.006;2022-09-30T14:35:51;1.75;;;1.02;;
74227;SDS011;62587;52.352;5.006;2022-09-30T14:38:20;1.42;;;1.10;;
74227;SDS011;62587;52.352;5.006;2022-09-30T14:40:52;1.25;;;0.90;;
74227;SDS011;62587;52.352;5.006;2022-09-30T14:43:25;1.48;;;1.00;;
74227;SDS011;62587;52.352;5.006;2022-09-30T14:45:54;1.67;;;1.00;;
74227;SDS011;62587;52.352;5.006;2022-09-30T14:48:23;1.90;;;1.10;;
74227;SDS011;62587;52.352;5.006;2022-09-30T14:55:52;1.60;;;0.80;;
74227;SDS011;62587;52.352;5.006;2022-09-30T14:58:19;1.38;;;0.75;;
74227;SDS011;62587;52.352;5.006;2022-09-30T15:00:46;1.58;;;0.90;;
74227;SDS011;62587;52.352;5.006;2022-09-30T15:03:14;1.23;;;0.63;;
74227;SDS011;62587;52.352;5.006;2022-09-30T15:05:40;1.40;;;0.80;;
74227;SDS011;62587;52.352;5.006;2022-09-30T15:08:09;1.73;;;0.90;;
74227;SDS011;62587;52.352;5.006;2022-09-30T15:10:36;1.23;;;0.90;;
74227;SDS011;62587;52.352;5.006;2022-09-30T15:13:02;1.35;;;0.90;;
74227;SDS011;62587;52.352;5.006;2022-09-30T15:15:32;1.20;;;0.90;;
74227;SDS011;62587;52.352;5.006;2022-09-30T15:20:56;1.20;;;0.70;;
74227;SDS011;62587;52.352;5.006;2022-09-30T15:25:52;1.05;;;0.80;;
74227;SDS011;62587;52.352;5.006;2022-09-30T15:28:18;1.23;;;0.90;;
74227;SDS011;62587;52.352;5.006;2022-09-30T15:30:43;1.25;;;0.80;;
74227;SDS011;62587;52.352;5.006;2022-09-30T15:33:15;1.40;;;0.90;;
74227;SDS011;62587;52.352;5.006;2022-09-30T15:35:44;2.40;;;0.90;;
74227;SDS011;62587;52.352;5.006;2022-09-30T15:38:17;1.23;;;0.73;;
74227;SDS011;62587;52.352;5.006;2022-09-30T15:40:54;1.20;;;0.80;;
74227;SDS011;62587;52.352;5.006;2022-09-30T15:43:30;2.15;;;1.00;;
74227;SDS011;62587;52.352;5.006;2022-09-30T15:48:42;0.73;;;0.52;;
74227;SDS011;62587;52.352;5.006;2022-09-30T15:54:26;1.42;;;0.70;;
74227;SDS011;62587;52.352;5.006;2022-09-30T15:56:56;1.20;;;0.80;;
74227;SDS011;62587;52.352;5.006;2022-09-30T15:59:23;1.10;;;0.80;;
74227;SDS011;62587;52.352;5.006;2022-09-30T16:02:22;1.55;;;0.90;;
74227;SDS011;62587;52.352;5.006;2022-09-30T16:04:51;1.60;;;1.10;;
74227;SDS011;62587;52.352;5.006;2022-09-30T16:07:17;1.20;;;0.90;;
74227;SDS011;62587;52.352;5.006;2022-09-30T16:09:45;1.00;;;0.80;;
74227;SDS011;62587;52.352;5.006;2022-09-30T16:17:51;1.35;;;1.00;;
74227;SDS011;62587;52.352;5.006;2022-09-30T16:27:42;1.50;;;0.85;;
74227;SDS011;62587;52.352;5.006;2022-09-30T16:30:11;1.20;;;1.00;;
74227;SDS011;62587;52.352;5.006;2022-09-30T16:32:39;1.33;;;0.93;;
74227;SDS011;62587;52.352;5.006;2022-09-30T16:35:13;1.95;;;0.95;;
74227;SDS011;62587;52.352;5.006;2022-09-30T16:37:41;2.05;;;1.20;;
74227;SDS011;62587;52.352;5.006;2022-09-30T16:40:14;1.77;;;0.98;;
74227;SDS011;62587;52.352;5.006;2022-09-30T16:42:41;1.60;;;1.17;;
74227;SDS011;62587;52.352;5.006;2022-09-30T16:45:09;1.52;;;1.08;;
74227;SDS011;62587;52.352;5.006;2022-09-30T16:47:36;1.55;;;1.00;;
74227;SDS011;62587;52.352;5.006;2022-09-30T16:50:05;1.60;;;1.10;;
74227;SDS011;62587;52.352;5.006;2022-09-30T16:52:39;1.42;;;1.08;;
74227;SDS011;62587;52.352;5.006;2022-09-30T16:55:04;1.30;;;1.03;;
74227;SDS011;62587;52.352;5.006;2022-09-30T16:57:30;1.80;;;1.23;;
74227;SDS011;62587;52.352;5.006;2022-09-30T16:59:55;2.47;;;1.23;;
74227;SDS011;62587;52.352;5.006;2022-09-30T17:02:20;1.50;;;1.10;;
74227;SDS011;62587;52.352;5.006;2022-09-30T17:04:46;1.52;;;1.20;;
74227;SDS011;62587;52.352;5.006;2022-09-30T17:07:11;1.63;;;1.23;;
74227;SDS011;62587;52.352;5.006;2022-09-30T17:09:38;1.75;;;1.08;;
74227;SDS011;62587;52.352;5.006;2022-09-30T17:12:04;1.35;;;1.10;;
74227;SDS011;62587;52.352;5.006;2022-09-30T17:14:30;1.65;;;1.10;;
74227;SDS011;62587;52.352;5.006;2022-09-30T17:16:55;2.35;;;1.20;;
74227;SDS011;62587;52.352;5.006;2022-09-30T17:19:21;1.83;;;1.20;;
74227;SDS011;62587;52.352;5.006;2022-09-30T17:21:46;1.27;;;1.13;;
74227;SDS011;62587;52.352;5.006;2022-09-30T17:24:12;1.60;;;1.00;;
74227;SDS011;62587;52.352;5.006;2022-09-30T17:26:37;1.87;;;1.17;;
74227;SDS011;62587;52.352;5.006;2022-09-30T17:29:03;1.80;;;1.50;;
74227;SDS011;62587;52.352;5.006;2022-09-30T17:31:29;1.67;;;1.10;;
74227;SDS011;62587;52.352;5.006;2022-09-30T17:33:54;1.67;;;1.13;;
74227;SDS011;62587;52.352;5.006;2022-09-30T17:36:20;1.90;;;1.30;;
74227;SDS011;62587;52.352;5.006;2022-09-30T17:38:45;1.60;;;1.40;;
74227;SDS011;62587;52.352;5.006;2022-09-30T17:41:11;2.38;;;1.30;;
74227;SDS011;62587;52.352;5.006;2022-09-30T17:43:57;2.22;;;1.20;;
74227;SDS011;62587;52.352;5.006;2022-09-30T17:46:24;2.63;;;1.48;;
74227;SDS011;62587;52.352;5.006;2022-09-30T17:48:53;1.77;;;1.23;;
74227;SDS011;62587;52.352;5.006;2022-09-30T17:51:19;2.05;;;1.10;;
74227;SDS011;62587;52.352;5.006;2022-09-30T17:53:44;2.17;;;1.30;;
74227;SDS011;62587;52.352;5.006;2022-09-30T17:56:14;1.85;;;1.42;;
74227;SDS011;62587;52.352;5.006;2022-09-30T17:58:44;1.63;;;1.40;;
74227;SDS011;62587;52.352;5.006;2022-09-30T18:01:12;1.60;;;1.20;;
74227;SDS011;62587;52.352;5.006;2022-09-30T18:03:39;1.73;;;1.30;;
74227;SDS011;62587;52.352;5.006;2022-09-30T18:06:05;1.90;;;1.33;;
74227;SDS011;62587;52.352;5.006;2022-09-30T18:08:31;2.95;;;1.50;;
74227;SDS011;62587;52.352;5.006;2022-09-30T18:10:56;1.40;;;1.17;;
74227;SDS011;62587;52.352;5.006;2022-09-30T18:13:22;2.35;;;1.40;;
74227;SDS011;62587;52.352;5.006;2022-09-30T18:15:48;2.40;;;1.25;;
74227;SDS011;62587;52.352;5.006;2022-09-30T18:18:14;1.58;;;1.45;;
74227;SDS011;62587;52.352;5.006;2022-09-30T18:20:47;2.17;;;1.20;;
74227;SDS011;62587;52.352;5.006;2022-09-30T18:23:14;2.25;;;1.20;;
74227;SDS011;62587;52.352;5.006;2022-09-30T18:25:43;2.10;;;1.13;;